Portada
METAR-TAF:

METAR-TAF

Aeroports :

Shijiazhuang, Xina

latitud: 38-16-51N, longitud: 114-41-48E, altitud: 233 m

Observació

L'informe es va fer fa 25 minuts, a les 02:00 UTC
Vent 4 kt del Est
Temperatura 4°C
Humitat 52%
Pressió 1033 hPa
Visibilitat 10 km o més
Cel cobert a una alçada de 4600 ft
neu

METAR: ZBSJ 270200Z 10002MPS 9999 -SN OVC046 04/M05 Q1033 NOSIG

Hora: 10:25 (02:25 UTC)

Pronòstic

L'informe es va fer fa 7 hores i 3 minuts, a les 19:22 UTC
Pronòstic vàlid del 27 a les 00 UTC al 27 a les 24 UTC
Vent 8 kt del Sud/Sud-Est
Visibilitat: 6000 m
Temporalment
l' 27 a les 00 UTC al 27 a les 02 UTC
Visibilitat: 2500 m
pluja, neu, boirina
Evolucionant progressivament
l' 27 a les 06 UTC al 27 a les 07 UTC
Visibilitat: 2500 m
pluja, boirina

TAF: ZBSJ 261922Z 2700/2724 15004MPS 6000 NSC TX07/2707Z TN01/2721Z TEMPO 2700/2702 2500 -RASN BR BECMG 2706/2707 2500 -RA BR

Observacions i pronòstics meteorològics de més de 4000 aeroports (METAR i TAF).

Les estacions disponibles són els punts grocs i vermells al mapa.

Posi el ratolí al punt desitjat per veure el nom de l'estació.

Feu clic per veure les observacions i els pronòstics meteorològics.

Per canviar el mapa: feu clic els botons verds amb una creu de color negre per apropar; al botó verd amb un guió per allunyar la imatge; o en les fletxes verdes per a mapes adjacents.


METAR-TAF: